sensor_id;sensor_type;location;lat;lon;timestamp;temperature;humidity
21928;DHT22;11128;51.096;17.190;2023-11-19T00:02:50;3.40;99.90
21928;DHT22;11128;51.096;17.190;2023-11-19T00:07:51;3.30;1.00
21928;DHT22;11128;51.096;17.190;2023-11-19T00:12:53;3.20;99.90
21928;DHT22;11128;51.096;17.190;2023-11-19T00:17:54;3.20;1.00
21928;DHT22;11128;51.096;17.190;2023-11-19T00:22:55;3.20;99.90
21928;DHT22;11128;51.096;17.190;2023-11-19T00:27:57;3.20;1.00
21928;DHT22;11128;51.096;17.190;2023-11-19T00:32:58;3.10;1.00
21928;DHT22;11128;51.096;17.190;2023-11-19T00:37:59;3.10;99.90
21928;DHT22;11128;51.096;17.190;2023-11-19T00:43:02;3.30;1.00
21928;DHT22;11128;51.096;17.190;2023-11-19T00:48:03;3.00;1.00
21928;DHT22;11128;51.096;17.190;2023-11-19T00:53:05;3.00;1.00
21928;DHT22;11128;51.096;17.190;2023-11-19T00:58:06;2.90;1.00
21928;DHT22;11128;51.096;17.190;2023-11-19T01:03:08;2.90;1.00
21928;DHT22;11128;51.096;17.190;2023-11-19T01:08:09;2.80;1.00
21928;DHT22;11128;51.096;17.190;2023-11-19T01:13:10;2.70;1.00
21928;DHT22;11128;51.096;17.190;2023-11-19T01:18:11;2.70;99.90
21928;DHT22;11128;51.096;17.190;2023-11-19T01:23:13;2.80;1.00
21928;DHT22;11128;51.096;17.190;2023-11-19T01:28:14;2.70;99.90
21928;DHT22;11128;51.096;17.190;2023-11-19T01:33:15;2.60;99.90
21928;DHT22;11128;51.096;17.190;2023-11-19T01:38:16;2.50;1.00
21928;DHT22;11128;51.096;17.190;2023-11-19T01:43:37;2.20;1.00
21928;DHT22;11128;51.096;17.190;2023-11-19T01:48:45;2.50;99.90
21928;DHT22;11128;51.096;17.190;2023-11-19T01:53:48;2.30;1.00
21928;DHT22;11128;51.096;17.190;2023-11-19T01:58:50;2.40;1.00
21928;DHT22;11128;51.096;17.190;2023-11-19T02:03:52;2.30;99.90
21928;DHT22;11128;51.096;17.190;2023-11-19T02:08:54;2.40;1.00
21928;DHT22;11128;51.096;17.190;2023-11-19T02:13:56;2.10;1.00
21928;DHT22;11128;51.096;17.190;2023-11-19T02:18:58;2.20;56.90
21928;DHT22;11128;51.096;17.190;2023-11-19T02:23:59;2.30;1.00
21928;DHT22;11128;51.096;17.190;2023-11-19T02:29:01;2.20;1.00
21928;DHT22;11128;51.096;17.190;2023-11-19T02:34:03;1.80;1.00
21928;DHT22;11128;51.096;17.190;2023-11-19T02:39:05;2.20;1.00
21928;DHT22;11128;51.096;17.190;2023-11-19T02:44:11;2.20;68.00
21928;DHT22;11128;51.096;17.190;2023-11-19T02:49:12;2.20;1.00
21928;DHT22;11128;51.096;17.190;2023-11-19T02:54:14;2.20;1.00
21928;DHT22;11128;51.096;17.190;2023-11-19T02:59:15;2.50;1.00
21928;DHT22;11128;51.096;17.190;2023-11-19T03:04:28;2.20;1.00
21928;DHT22;11128;51.096;17.190;2023-11-19T03:09:29;2.30;1.00
21928;DHT22;11128;51.096;17.190;2023-11-19T03:14:33;2.20;1.00
21928;DHT22;11128;51.096;17.190;2023-11-19T03:19:35;2.10;1.00
21928;DHT22;11128;51.096;17.190;2023-11-19T03:24:36;2.20;1.00
21928;DHT22;11128;51.096;17.190;2023-11-19T03:29:37;2.30;1.00
21928;DHT22;11128;51.096;17.190;2023-11-19T03:34:40;2.10;99.90
21928;DHT22;11128;51.096;17.190;2023-11-19T03:39:42;2.10;1.00
21928;DHT22;11128;51.096;17.190;2023-11-19T03:44:43;2.10;1.00
21928;DHT22;11128;51.096;17.190;2023-11-19T03:49:48;2.00;99.90
21928;DHT22;11128;51.096;17.190;2023-11-19T03:54:50;1.80;1.00
21928;DHT22;11128;51.096;17.190;2023-11-19T03:59:51;2.00;1.00
21928;DHT22;11128;51.096;17.190;2023-11-19T04:04:53;2.00;1.00
21928;DHT22;11128;51.096;17.190;2023-11-19T04:09:54;1.90;99.90
21928;DHT22;11128;51.096;17.190;2023-11-19T04:14:56;2.00;99.90
21928;DHT22;11128;51.096;17.190;2023-11-19T04:19:57;2.10;1.00
21928;DHT22;11128;51.096;17.190;2023-11-19T04:24:58;2.00;99.90
21928;DHT22;11128;51.096;17.190;2023-11-19T04:29:59;2.00;99.90
21928;DHT22;11128;51.096;17.190;2023-11-19T04:35:02;2.10;1.00
21928;DHT22;11128;51.096;17.190;2023-11-19T04:40:04;2.00;99.90
21928;DHT22;11128;51.096;17.190;2023-11-19T04:45:06;2.00;1.00
21928;DHT22;11128;51.096;17.190;2023-11-19T04:50:08;2.00;99.90
21928;DHT22;11128;51.096;17.190;2023-11-19T04:55:13;2.10;1.00
21928;DHT22;11128;51.096;17.190;2023-11-19T05:00:15;2.30;1.00
21928;DHT22;11128;51.096;17.190;2023-11-19T05:05:17;2.00;99.90
21928;DHT22;11128;51.096;17.190;2023-11-19T05:10:19;2.00;1.00
21928;DHT22;11128;51.096;17.190;2023-11-19T05:15:21;2.20;1.00
21928;DHT22;11128;51.096;17.190;2023-11-19T05:20:22;2.10;1.00
21928;DHT22;11128;51.096;17.190;2023-11-19T05:25:23;2.10;1.00
21928;DHT22;11128;51.096;17.190;2023-11-19T05:30:26;2.20;1.00
21928;DHT22;11128;51.096;17.190;2023-11-19T05:35:27;2.10;1.00
21928;DHT22;11128;51.096;17.190;2023-11-19T05:40:28;2.10;1.00
21928;DHT22;11128;51.096;17.190;2023-11-19T05:45:30;2.10;24.00
21928;DHT22;11128;51.096;17.190;2023-11-19T05:50:31;2.10;99.90
21928;DHT22;11128;51.096;17.190;2023-11-19T05:55:39;2.30;99.90
21928;DHT22;11128;51.096;17.190;2023-11-19T06:00:56;2.20;99.90
21928;DHT22;11128;51.096;17.190;2023-11-19T06:05:57;2.00;99.90
21928;DHT22;11128;51.096;17.190;2023-11-19T06:10:59;2.20;99.90
21928;DHT22;11128;51.096;17.190;2023-11-19T06:16:02;2.20;1.00
21928;DHT22;11128;51.096;17.190;2023-11-19T06:21:03;2.30;1.00
21928;DHT22;11128;51.096;17.190;2023-11-19T06:26:05;2.40;1.00
21928;DHT22;11128;51.096;17.190;2023-11-19T06:31:06;2.30;1.00
21928;DHT22;11128;51.096;17.190;2023-11-19T06:36:14;2.40;1.00
21928;DHT22;11128;51.096;17.190;2023-11-19T06:41:17;2.40;1.00
21928;DHT22;11128;51.096;17.190;2023-11-19T06:46:19;2.40;99.90
21928;DHT22;11128;51.096;17.190;2023-11-19T06:51:20;2.30;99.50
21928;DHT22;11128;51.096;17.190;2023-11-19T06:56:23;2.40;99.90
21928;DHT22;11128;51.096;17.190;2023-11-19T07:01:24;2.40;99.90
21928;DHT22;11128;51.096;17.190;2023-11-19T07:06:25;2.40;99.90
21928;DHT22;11128;51.096;17.190;2023-11-19T07:11:27;2.40;99.90
21928;DHT22;11128;51.096;17.190;2023-11-19T07:16:28;2.60;99.90
21928;DHT22;11128;51.096;17.190;2023-11-19T07:21:30;2.50;1.00
21928;DHT22;11128;51.096;17.190;2023-11-19T07:26:32;2.50;97.90
21928;DHT22;11128;51.096;17.190;2023-11-19T07:31:33;2.60;1.00
21928;DHT22;11128;51.096;17.190;2023-11-19T07:36:35;2.60;1.00
21928;DHT22;11128;51.096;17.190;2023-11-19T07:41:37;2.70;1.00
21928;DHT22;11128;51.096;17.190;2023-11-19T07:46:38;2.70;1.00
21928;DHT22;11128;51.096;17.190;2023-11-19T07:51:40;2.80;99.90
21928;DHT22;11128;51.096;17.190;2023-11-19T07:56:41;3.00;99.90
21928;DHT22;11128;51.096;17.190;2023-11-19T08:01:42;2.70;99.90
21928;DHT22;11128;51.096;17.190;2023-11-19T08:06:44;2.80;92.30
21928;DHT22;11128;51.096;17.190;2023-11-19T08:11:47;2.80;99.90
21928;DHT22;11128;51.096;17.190;2023-11-19T08:16:49;2.80;1.00
21928;DHT22;11128;51.096;17.190;2023-11-19T08:21:50;2.80;1.00
21928;DHT22;11128;51.096;17.190;2023-11-19T08:26:51;2.80;1.00
21928;DHT22;11128;51.096;17.190;2023-11-19T08:31:53;2.80;1.00
21928;DHT22;11128;51.096;17.190;2023-11-19T08:36:54;2.80;1.00
21928;DHT22;11128;51.096;17.190;2023-11-19T08:42:02;2.80;15.40
21928;DHT22;11128;51.096;17.190;2023-11-19T08:47:03;2.80;1.00
21928;DHT22;11128;51.096;17.190;2023-11-19T08:52:05;2.80;99.90
21928;DHT22;11128;51.096;17.190;2023-11-19T08:57:10;2.70;99.90
21928;DHT22;11128;51.096;17.190;2023-11-19T09:02:11;2.70;99.90
21928;DHT22;11128;51.096;17.190;2023-11-19T09:07:12;2.60;1.00
21928;DHT22;11128;51.096;17.190;2023-11-19T09:12:14;2.70;1.00
21928;DHT22;11128;51.096;17.190;2023-11-19T09:17:15;2.50;1.00
21928;DHT22;11128;51.096;17.190;2023-11-19T09:22:17;2.50;1.00
21928;DHT22;11128;51.096;17.190;2023-11-19T09:27:18;2.60;99.90
21928;DHT22;11128;51.096;17.190;2023-11-19T09:32:20;2.60;99.90
21928;DHT22;11128;51.096;17.190;2023-11-19T09:37:21;2.60;99.90
21928;DHT22;11128;51.096;17.190;2023-11-19T09:42:24;2.60;1.00
21928;DHT22;11128;51.096;17.190;2023-11-19T09:47:25;2.70;1.00
21928;DHT22;11128;51.096;17.190;2023-11-19T09:52:28;2.80;1.00
21928;DHT22;11128;51.096;17.190;2023-11-19T09:57:32;2.80;1.00
21928;DHT22;11128;51.096;17.190;2023-11-19T10:02:37;2.90;1.00
21928;DHT22;11128;51.096;17.190;2023-11-19T10:07:38;3.00;1.00
21928;DHT22;11128;51.096;17.190;2023-11-19T10:12:39;3.00;1.00
21928;DHT22;11128;51.096;17.190;2023-11-19T10:17:41;3.10;1.00
21928;DHT22;11128;51.096;17.190;2023-11-19T10:22:42;3.10;1.00
21928;DHT22;11128;51.096;17.190;2023-11-19T10:27:44;3.30;1.00
21928;DHT22;11128;51.096;17.190;2023-11-19T10:32:45;3.20;1.00
21928;DHT22;11128;51.096;17.190;2023-11-19T10:37:47;3.30;1.00
21928;DHT22;11128;51.096;17.190;2023-11-19T10:42:48;3.40;99.90
21928;DHT22;11128;51.096;17.190;2023-11-19T10:47:51;3.60;99.90
21928;DHT22;11128;51.096;17.190;2023-11-19T10:52:56;3.70;99.90
21928;DHT22;11128;51.096;17.190;2023-11-19T10:58:06;3.70;99.90
21928;DHT22;11128;51.096;17.190;2023-11-19T11:03:17;3.80;99.90
21928;DHT22;11128;51.096;17.190;2023-11-19T11:08:20;3.90;99.90
21928;DHT22;11128;51.096;17.190;2023-11-19T11:13:25;3.90;82.90
21928;DHT22;11128;51.096;17.190;2023-11-19T11:18:30;3.90;99.90
21928;DHT22;11128;51.096;17.190;2023-11-19T11:24:02;3.90;99.90
21928;DHT22;11128;51.096;17.190;2023-11-19T11:29:39;3.90;99.90
21928;DHT22;11128;51.096;17.190;2023-11-19T11:34:46;3.90;99.90
21928;DHT22;11128;51.096;17.190;2023-11-19T11:39:51;4.00;99.90
21928;DHT22;11128;51.096;17.190;2023-11-19T11:45:05;4.00;99.90
21928;DHT22;11128;51.096;17.190;2023-11-19T11:50:19;4.10;99.90
21928;DHT22;11128;51.096;17.190;2023-11-19T11:55:24;4.20;99.90
21928;DHT22;11128;51.096;17.190;2023-11-19T12:00:32;4.20;99.90
21928;DHT22;11128;51.096;17.190;2023-11-19T12:05:42;4.20;99.90
21928;DHT22;11128;51.096;17.190;2023-11-19T12:10:53;4.20;99.90
21928;DHT22;11128;51.096;17.190;2023-11-19T12:21:02;4.40;99.90
21928;DHT22;11128;51.096;17.190;2023-11-19T12:26:03;4.40;99.90
21928;DHT22;11128;51.096;17.190;2023-11-19T12:31:08;4.50;99.90
21928;DHT22;11128;51.096;17.190;2023-11-19T12:36:12;4.60;99.90
21928;DHT22;11128;51.096;17.190;2023-11-19T12:41:13;4.70;99.90
21928;DHT22;11128;51.096;17.190;2023-11-19T12:46:23;4.70;99.90
21928;DHT22;11128;51.096;17.190;2023-11-19T12:51:31;4.80;99.90
21928;DHT22;11128;51.096;17.190;2023-11-19T12:56:33;4.90;99.90
21928;DHT22;11128;51.096;17.190;2023-11-19T13:01:35;5.00;99.90
21928;DHT22;11128;51.096;17.190;2023-11-19T13:06:45;5.10;99.90
21928;DHT22;11128;51.096;17.190;2023-11-19T13:11:46;5.20;99.90
21928;DHT22;11128;51.096;17.190;2023-11-19T13:16:48;5.40;99.90
21928;DHT22;11128;51.096;17.190;2023-11-19T13:21:49;5.50;99.90
21928;DHT22;11128;51.096;17.190;2023-11-19T13:26:51;5.60;99.90
21928;DHT22;11128;51.096;17.190;2023-11-19T13:31:52;5.60;99.90
21928;DHT22;11128;51.096;17.190;2023-11-19T13:36:54;5.70;99.90
21928;DHT22;11128;51.096;17.190;2023-11-19T13:41:56;5.70;99.90
21928;DHT22;11128;51.096;17.190;2023-11-19T13:46:58;5.80;99.90
21928;DHT22;11128;51.096;17.190;2023-11-19T13:51:59;5.80;99.90
21928;DHT22;11128;51.096;17.190;2023-11-19T13:57:01;5.90;99.90
21928;DHT22;11128;51.096;17.190;2023-11-19T14:02:05;6.10;99.90
21928;DHT22;11128;51.096;17.190;2023-11-19T14:07:08;6.10;99.90
21928;DHT22;11128;51.096;17.190;2023-11-19T14:12:09;6.20;99.90
21928;DHT22;11128;51.096;17.190;2023-11-19T14:17:10;6.20;99.90
21928;DHT22;11128;51.096;17.190;2023-11-19T14:22:12;6.20;99.90
21928;DHT22;11128;51.096;17.190;2023-11-19T14:27:13;6.30;99.90
21928;DHT22;11128;51.096;17.190;2023-11-19T14:32:15;6.40;99.90
21928;DHT22;11128;51.096;17.190;2023-11-19T14:37:16;6.40;99.90
21928;DHT22;11128;51.096;17.190;2023-11-19T14:42:18;6.50;99.90
21928;DHT22;11128;51.096;17.190;2023-11-19T14:47:19;6.50;99.90
21928;DHT22;11128;51.096;17.190;2023-11-19T14:52:21;6.50;99.90
21928;DHT22;11128;51.096;17.190;2023-11-19T14:57:23;6.50;99.90
21928;DHT22;11128;51.096;17.190;2023-11-19T15:02:24;6.50;99.90
21928;DHT22;11128;51.096;17.190;2023-11-19T15:07:26;6.60;99.90
21928;DHT22;11128;51.096;17.190;2023-11-19T15:12:30;6.60;99.90
21928;DHT22;11128;51.096;17.190;2023-11-19T15:17:32;6.60;99.90
21928;DHT22;11128;51.096;17.190;2023-11-19T15:22:33;6.60;99.90
21928;DHT22;11128;51.096;17.190;2023-11-19T15:27:35;6.70;99.90
21928;DHT22;11128;51.096;17.190;2023-11-19T15:32:36;6.70;99.90
21928;DHT22;11128;51.096;17.190;2023-11-19T15:37:38;6.70;99.90
21928;DHT22;11128;51.096;17.190;2023-11-19T15:42:41;6.80;99.90
21928;DHT22;11128;51.096;17.190;2023-11-19T15:47:49;6.80;99.90
21928;DHT22;11128;51.096;17.190;2023-11-19T15:52:50;6.80;99.90
21928;DHT22;11128;51.096;17.190;2023-11-19T15:57:52;6.80;99.90
21928;DHT22;11128;51.096;17.190;2023-11-19T16:02:53;6.70;99.90
21928;DHT22;11128;51.096;17.190;2023-11-19T16:07:56;6.70;99.90
21928;DHT22;11128;51.096;17.190;2023-11-19T16:12:58;6.80;99.90
21928;DHT22;11128;51.096;17.190;2023-11-19T16:18:00;6.70;99.90
21928;DHT22;11128;51.096;17.190;2023-11-19T16:23:01;6.90;99.90
21928;DHT22;11128;51.096;17.190;2023-11-19T16:28:05;6.90;99.90
21928;DHT22;11128;51.096;17.190;2023-11-19T16:33:08;6.90;99.90
21928;DHT22;11128;51.096;17.190;2023-11-19T16:38:10;6.90;99.90
21928;DHT22;11128;51.096;17.190;2023-11-19T16:43:11;7.00;99.90
21928;DHT22;11128;51.096;17.190;2023-11-19T16:48:13;7.00;99.90
21928;DHT22;11128;51.096;17.190;2023-11-19T16:53:18;7.00;99.90
21928;DHT22;11128;51.096;17.190;2023-11-19T16:58:19;7.00;99.90
21928;DHT22;11128;51.096;17.190;2023-11-19T17:03:21;7.10;99.90
21928;DHT22;11128;51.096;17.190;2023-11-19T17:08:22;7.10;99.90
21928;DHT22;11128;51.096;17.190;2023-11-19T17:13:25;7.10;99.90
21928;DHT22;11128;51.096;17.190;2023-11-19T17:18:26;7.10;99.90
21928;DHT22;11128;51.096;17.190;2023-11-19T17:23:28;7.10;99.90
21928;DHT22;11128;51.096;17.190;2023-11-19T17:28:29;7.20;99.90
21928;DHT22;11128;51.096;17.190;2023-11-19T17:33:31;7.20;99.90
21928;DHT22;11128;51.096;17.190;2023-11-19T17:38:33;7.20;99.90
21928;DHT22;11128;51.096;17.190;2023-11-19T17:43:34;7.30;99.90
21928;DHT22;11128;51.096;17.190;2023-11-19T17:48:36;7.30;99.90
21928;DHT22;11128;51.096;17.190;2023-11-19T17:53:37;7.30;99.90
21928;DHT22;11128;51.096;17.190;2023-11-19T17:58:38;7.30;99.90
21928;DHT22;11128;51.096;17.190;2023-11-19T18:03:40;7.40;99.90
21928;DHT22;11128;51.096;17.190;2023-11-19T18:08:44;7.40;99.90
21928;DHT22;11128;51.096;17.190;2023-11-19T18:13:47;7.50;99.90
21928;DHT22;11128;51.096;17.190;2023-11-19T18:18:50;7.50;99.90
21928;DHT22;11128;51.096;17.190;2023-11-19T18:23:52;7.50;99.90
21928;DHT22;11128;51.096;17.190;2023-11-19T18:28:54;7.50;99.90
21928;DHT22;11128;51.096;17.190;2023-11-19T18:33:56;7.50;99.90
21928;DHT22;11128;51.096;17.190;2023-11-19T18:38:58;7.50;99.90
21928;DHT22;11128;51.096;17.190;2023-11-19T18:44:04;7.50;99.90
21928;DHT22;11128;51.096;17.190;2023-11-19T18:49:07;7.60;99.90
21928;DHT22;11128;51.096;17.190;2023-11-19T18:54:10;7.60;99.90
21928;DHT22;11128;51.096;17.190;2023-11-19T18:59:12;7.60;99.90
21928;DHT22;11128;51.096;17.190;2023-11-19T19:04:14;7.70;99.90
21928;DHT22;11128;51.096;17.190;2023-11-19T19:09:16;7.70;99.90
21928;DHT22;11128;51.096;17.190;2023-11-19T19:14:19;7.80;99.90
21928;DHT22;11128;51.096;17.190;2023-11-19T19:19:21;7.80;99.90
21928;DHT22;11128;51.096;17.190;2023-11-19T19:24:22;7.90;99.90
21928;DHT22;11128;51.096;17.190;2023-11-19T19:29:23;7.90;99.90
21928;DHT22;11128;51.096;17.190;2023-11-19T19:34:26;7.90;99.90
21928;DHT22;11128;51.096;17.190;2023-11-19T19:39:29;7.80;99.90
21928;DHT22;11128;51.096;17.190;2023-11-19T19:44:31;7.90;99.90
21928;DHT22;11128;51.096;17.190;2023-11-19T19:49:32;7.90;99.90
21928;DHT22;11128;51.096;17.190;2023-11-19T19:54:34;7.80;99.90
21928;DHT22;11128;51.096;17.190;2023-11-19T19:59:36;7.80;99.90
21928;DHT22;11128;51.096;17.190;2023-11-19T20:04:39;7.80;99.90
21928;DHT22;11128;51.096;17.190;2023-11-19T20:09:41;7.70;99.90
21928;DHT22;11128;51.096;17.190;2023-11-19T20:14:43;7.70;99.90
21928;DHT22;11128;51.096;17.190;2023-11-19T20:19:45;7.70;99.90
21928;DHT22;11128;51.096;17.190;2023-11-19T20:24:47;7.80;99.90
21928;DHT22;11128;51.096;17.190;2023-11-19T20:29:49;7.70;99.90
21928;DHT22;11128;51.096;17.190;2023-11-19T20:34:50;7.80;99.90
21928;DHT22;11128;51.096;17.190;2023-11-19T20:39:53;7.70;99.90
21928;DHT22;11128;51.096;17.190;2023-11-19T20:44:54;7.70;99.90
21928;DHT22;11128;51.096;17.190;2023-11-19T20:49:57;7.80;99.90
21928;DHT22;11128;51.096;17.190;2023-11-19T20:54:58;7.80;99.90
21928;DHT22;11128;51.096;17.190;2023-11-19T21:00:00;7.80;99.90
21928;DHT22;11128;51.096;17.190;2023-11-19T21:05:02;7.80;99.90
21928;DHT22;11128;51.096;17.190;2023-11-19T21:10:04;7.80;99.90
21928;DHT22;11128;51.096;17.190;2023-11-19T21:15:06;7.90;99.90
21928;DHT22;11128;51.096;17.190;2023-11-19T21:20:08;7.90;99.90
21928;DHT22;11128;51.096;17.190;2023-11-19T21:25:10;8.00;99.90
21928;DHT22;11128;51.096;17.190;2023-11-19T21:30:13;8.10;99.90
21928;DHT22;11128;51.096;17.190;2023-11-19T21:35:14;8.10;99.90
21928;DHT22;11128;51.096;17.190;2023-11-19T21:40:15;8.10;99.90
21928;DHT22;11128;51.096;17.190;2023-11-19T21:45:17;8.10;99.90
21928;DHT22;11128;51.096;17.190;2023-11-19T21:50:18;8.20;99.90
21928;DHT22;11128;51.096;17.190;2023-11-19T21:55:20;8.30;99.90
21928;DHT22;11128;51.096;17.190;2023-11-19T22:00:21;8.30;99.90
21928;DHT22;11128;51.096;17.190;2023-11-19T22:05:23;8.40;99.90
21928;DHT22;11128;51.096;17.190;2023-11-19T22:10:24;8.40;99.90
21928;DHT22;11128;51.096;17.190;2023-11-19T22:15:26;8.40;99.90
21928;DHT22;11128;51.096;17.190;2023-11-19T22:20:27;8.40;99.90
21928;DHT22;11128;51.096;17.190;2023-11-19T22:25:29;8.40;99.90
21928;DHT22;11128;51.096;17.190;2023-11-19T22:30:31;8.40;99.90
21928;DHT22;11128;51.096;17.190;2023-11-19T22:35:33;8.40;99.90
21928;DHT22;11128;51.096;17.190;2023-11-19T22:40:35;8.40;99.90
21928;DHT22;11128;51.096;17.190;2023-11-19T22:45:37;8.40;99.90
21928;DHT22;11128;51.096;17.190;2023-11-19T22:50:40;8.40;99.90
21928;DHT22;11128;51.096;17.190;2023-11-19T22:55:42;8.40;99.90
21928;DHT22;11128;51.096;17.190;2023-11-19T23:00:43;8.30;99.90
21928;DHT22;11128;51.096;17.190;2023-11-19T23:05:47;8.30;99.90
21928;DHT22;11128;51.096;17.190;2023-11-19T23:10:48;8.20;99.90
21928;DHT22;11128;51.096;17.190;2023-11-19T23:15:49;8.20;99.90
21928;DHT22;11128;51.096;17.190;2023-11-19T23:20:52;8.20;99.90
21928;DHT22;11128;51.096;17.190;2023-11-19T23:25:53;8.10;99.90
21928;DHT22;11128;51.096;17.190;2023-11-19T23:30:55;8.10;99.90
21928;DHT22;11128;51.096;17.190;2023-11-19T23:35:57;8.00;99.90
21928;DHT22;11128;51.096;17.190;2023-11-19T23:40:58;8.00;99.90
21928;DHT22;11128;51.096;17.190;2023-11-19T23:46:00;8.00;99.90
21928;DHT22;11128;51.096;17.190;2023-11-19T23:51:01;8.10;99.90
21928;DHT22;11128;51.096;17.190;2023-11-19T23:56:05;8.00;99.90
